Time;durP1;ratioP1;P1;durP2;ratioP2;P2;SDS_P1;SDS_P2;PMS_P1;PMS_P2;Temp;Humidity;BMP_temperature;BMP_pressure;BME280_temperature;BME280_humidity;BME280_pressure;Samples;Min_cycle;Max_cycle;Signal;HPM_P1;HPM_P2
2023/12/08 00:01:18;;;;;;;18.40;14.37;;;3.20;1.00;;;;;;6282806;22;20727;-87
2023/12/08 00:03:44;;;;;;;18.63;14.87;;;3.20;1.00;;;;;;6286719;22;20383;-86
2023/12/08 00:06:10;;;;;;;20.53;12.87;;;3.30;99.90;;;;;;6286350;22;20157;-89
2023/12/08 00:08:37;;;;;;;17.90;11.20;;;3.30;99.90;;;;;;6285702;22;20148;-87
2023/12/08 00:11:03;;;;;;;17.52;12.80;;;3.30;99.90;;;;;;6285921;22;20294;-86
2023/12/08 00:13:29;;;;;;;20.10;15.57;;;3.30;1.00;;;;;;6285808;22;20539;-86
2023/12/08 00:15:54;;;;;;;17.30;12.23;;;3.30;99.90;;;;;;6282810;22;20153;-87
2023/12/08 00:18:21;;;;;;;21.50;11.67;;;3.30;99.90;;;;;;6285018;22;20145;-86
2023/12/08 00:20:47;;;;;;;16.23;11.73;;;3.30;99.90;;;;;;6286296;22;20337;-87
2023/12/08 00:23:15;;;;;;;16.60;11.70;;;3.30;2.30;;;;;;6285726;22;20175;-86
2023/12/08 00:25:41;;;;;;;23.52;14.20;;;3.40;1.00;;;;;;6282529;22;20395;-87
2023/12/08 00:28:06;;;;;;;16.93;10.70;;;3.30;1.00;;;;;;6284594;22;20195;-86
2023/12/08 00:30:32;;;;;;;14.47;10.63;;;3.40;1.00;;;;;;6286739;22;20176;-87
2023/12/08 00:32:57;;;;;;;18.80;12.37;;;3.50;1.00;;;;;;6285639;22;20192;-86
2023/12/08 00:35:23;;;;;;;20.67;12.33;;;3.50;1.00;;;;;;6284727;22;20144;-86
2023/12/08 00:37:48;;;;;;;19.23;12.30;;;3.50;1.00;;;;;;6282958;22;20391;-87
2023/12/08 00:40:16;;;;;;;15.57;12.87;;;3.50;1.00;;;;;;6283963;22;20180;-85
2023/12/08 00:42:42;;;;;;;17.50;14.25;;;3.40;99.90;;;;;;6283295;22;20177;-87
2023/12/08 00:45:08;;;;;;;18.97;13.13;;;3.40;99.90;;;;;;6285177;22;20153;-87
2023/12/08 00:47:33;;;;;;;18.23;12.17;;;3.50;99.90;;;;;;6285257;22;20156;-87
2023/12/08 00:49:59;;;;;;;16.53;11.50;;;3.40;1.00;;;;;;6285482;22;20401;-88
2023/12/08 00:52:25;;;;;;;17.70;12.50;;;3.50;99.90;;;;;;6285297;22;20180;-86
2023/12/08 00:54:50;;;;;;;17.90;12.90;;;3.50;1.00;;;;;;6284480;22;20187;-85
2023/12/08 00:57:16;;;;;;;17.40;11.90;;;3.50;99.90;;;;;;6258199;22;20713;-86
2023/12/08 00:59:41;;;;;;;16.33;10.73;;;3.50;1.00;;;;;;6285493;22;20171;-87
2023/12/08 01:02:07;;;;;;;18.73;10.10;;;3.60;99.90;;;;;;6284022;22;20187;-86
2023/12/08 01:04:33;;;;;;;16.30;10.57;;;3.60;99.90;;;;;;6258125;22;20601;-86
2023/12/08 01:06:59;;;;;;;15.60;12.23;;;3.60;99.90;;;;;;6258241;22;20286;-87
2023/12/08 01:09:24;;;;;;;18.03;11.97;;;3.60;99.90;;;;;;6285510;22;20593;-87
2023/12/08 01:11:50;;;;;;;14.60;11.80;;;3.50;1.00;;;;;;6286056;22;20210;-86
2023/12/08 01:14:15;;;;;;;14.27;11.13;;;3.50;1.00;;;;;;6286798;22;20156;-86
2023/12/08 01:16:41;;;;;;;16.53;10.07;;;3.50;1.00;;;;;;6284994;22;20149;-86
2023/12/08 01:19:08;;;;;;;17.13;10.93;;;3.50;1.00;;;;;;6283977;22;20479;-86
2023/12/08 01:21:37;;;;;;;17.85;11.25;;;3.50;1.00;;;;;;6285734;22;20493;-86
2023/12/08 01:24:03;;;;;;;17.92;10.93;;;3.60;1.00;;;;;;6285891;22;20153;-87
2023/12/08 01:26:29;;;;;;;15.85;11.90;;;3.60;1.00;;;;;;6284779;22;20159;-86
2023/12/08 01:28:54;;;;;;;21.27;12.03;;;3.60;1.00;;;;;;6286199;22;20224;-87
2023/12/08 01:31:20;;;;;;;14.37;10.90;;;3.60;1.00;;;;;;6259152;22;20173;-87
2023/12/08 01:33:45;;;;;;;16.67;12.60;;;3.60;99.90;;;;;;6286286;22;20205;-86
2023/12/08 01:36:11;;;;;;;23.33;12.33;;;3.50;1.00;;;;;;6286935;22;20198;-86
2023/12/08 01:38:36;;;;;;;21.13;14.00;;;3.50;1.00;;;;;;6287667;22;20149;-86
2023/12/08 01:41:02;;;;;;;21.63;13.73;;;3.50;1.00;;;;;;6287718;22;20526;-87
2023/12/08 01:43:28;;;;;;;18.73;12.63;;;3.40;1.00;;;;;;6261299;22;20240;-86
2023/12/08 01:45:57;;;;;;;20.83;13.60;;;3.30;1.00;;;;;;6261055;22;20157;-87
2023/12/08 01:48:24;;;;;;;20.38;15.68;;;3.30;17.70;;;;;;6289237;22;20156;-87
2023/12/08 01:50:50;;;;;;;25.05;16.55;;;3.30;99.90;;;;;;6288212;22;20169;-86
2023/12/08 01:53:15;;;;;;;20.57;13.77;;;3.30;99.90;;;;;;6288719;22;20234;-86
2023/12/08 01:55:41;;;;;;;20.80;16.00;;;3.30;99.90;;;;;;6260593;22;20149;-87
2023/12/08 01:58:07;;;;;;;21.70;14.87;;;3.20;99.90;;;;;;6288034;22;20153;-87
2023/12/08 02:00:33;;;;;;;19.17;13.85;;;3.20;91.50;;;;;;6287629;22;20497;-85
2023/12/08 02:02:59;;;;;;;18.73;13.40;;;3.30;61.20;;;;;;6285157;22;20177;-86
2023/12/08 02:05:26;;;;;;;18.90;14.03;;;3.20;1.00;;;;;;6286174;22;20156;-86
2023/12/08 02:07:53;;;;;;;19.98;14.55;;;3.30;1.00;;;;;;6259917;22;20759;-86
2023/12/08 02:10:19;;;;;;;19.80;13.07;;;3.30;1.00;;;;;;6285925;22;20255;-86
2023/12/08 02:12:45;;;;;;;18.63;13.57;;;3.30;1.00;;;;;;6288074;22;20191;-85
2023/12/08 02:15:14;;;;;;;19.55;12.50;;;3.30;1.00;;;;;;6288134;22;20156;-86
2023/12/08 02:17:41;;;;;;;21.13;13.35;;;3.30;1.00;;;;;;6259943;22;20212;-87
2023/12/08 02:20:09;;;;;;;19.52;11.95;;;3.40;1.00;;;;;;6287129;22;20651;-86
2023/12/08 02:22:35;;;;;;;18.67;10.77;;;3.40;99.90;;;;;;6286491;22;20164;-85
2023/12/08 02:25:01;;;;;;;15.38;10.75;;;3.40;99.90;;;;;;6286986;22;20177;-86
2023/12/08 02:27:27;;;;;;;17.75;13.73;;;3.40;77.90;;;;;;6287061;22;20153;-86
2023/12/08 02:29:53;;;;;;;15.33;9.70;;;3.40;1.00;;;;;;6289010;22;20149;-85
2023/12/08 02:32:35;;;;;;;15.70;9.40;;;3.50;99.90;;;;;;6288191;22;20737;-87
2023/12/08 02:35:06;;;;;;;16.23;11.35;;;3.60;1.00;;;;;;6288913;22;20151;-86
2023/12/08 02:37:36;;;;;;;15.95;9.45;;;3.60;1.00;;;;;;6288410;22;20153;-85
2023/12/08 02:40:02;;;;;;;16.25;12.38;;;3.60;99.90;;;;;;6287192;22;20198;-86
2023/12/08 02:42:28;;;;;;;17.30;12.82;;;3.60;99.90;;;;;;6289205;22;20188;-86
2023/12/08 02:44:53;;;;;;;20.77;12.00;;;3.60;71.30;;;;;;6288401;22;20167;-87
2023/12/08 02:47:19;;;;;;;16.57;11.50;;;3.60;1.00;;;;;;6260096;22;20156;-86
2023/12/08 02:49:45;;;;;;;19.43;11.27;;;3.60;1.00;;;;;;6288876;22;20144;-86
2023/12/08 02:52:10;;;;;;;20.07;12.30;;;3.60;1.00;;;;;;6290036;22;20236;-86
2023/12/08 02:54:36;;;;;;;19.60;12.37;;;3.60;1.00;;;;;;6290692;22;20145;-86
2023/12/08 02:57:01;;;;;;;19.33;12.63;;;3.50;67.60;;;;;;6291089;22;20198;-87
2023/12/08 02:59:27;;;;;;;23.13;14.50;;;3.50;99.90;;;;;;6289046;22;20152;-84
2023/12/08 03:01:52;;;;;;;23.17;13.80;;;3.50;99.90;;;;;;6288142;22;20252;-85
2023/12/08 03:04:18;;;;;;;22.73;13.23;;;3.40;99.90;;;;;;6278499;22;20209;-86
2023/12/08 03:06:43;;;;;;;21.20;14.00;;;3.50;99.90;;;;;;6301951;22;20165;-86
2023/12/08 03:09:09;;;;;;;18.43;11.60;;;3.40;99.90;;;;;;6276840;22;20152;-87
2023/12/08 03:11:35;;;;;;;22.77;14.40;;;3.40;99.90;;;;;;6277327;22;20176;-85
2023/12/08 03:14:00;;;;;;;22.07;14.03;;;3.30;99.90;;;;;;6276876;22;20487;-86
2023/12/08 03:16:26;;;;;;;25.20;15.30;;;3.30;1.00;;;;;;6275891;22;20211;-86
2023/12/08 03:18:51;;;;;;;21.90;14.90;;;3.30;1.00;;;;;;6276752;22;20157;-86
2023/12/08 03:21:24;;;;;;;27.40;16.17;;;3.20;1.00;;;;;;6275202;22;20248;-86
2023/12/08 03:23:49;;;;;;;28.63;17.85;;;3.10;1.00;;;;;;6278466;22;20177;-86
2023/12/08 03:26:16;;;;;;;28.73;17.33;;;2.90;1.00;;;;;;6275979;22;20220;-86
2023/12/08 03:28:41;;;;;;;34.88;19.33;;;3.00;1.00;;;;;;6275525;22;20399;-86
2023/12/08 03:31:19;;;;;;;37.50;21.70;;;3.00;1.00;;;;;;6277584;22;20265;-87
2023/12/08 03:33:44;;;;;;;37.40;23.30;;;3.00;1.00;;;;;;6279016;22;20520;-87
2023/12/08 03:36:10;;;;;;;28.70;15.97;;;2.90;1.00;;;;;;6283624;22;20152;-85
2023/12/08 03:38:35;;;;;;;34.33;19.33;;;2.90;1.00;;;;;;6279692;22;20183;-85
2023/12/08 03:41:01;;;;;;;35.50;20.50;;;2.90;1.00;;;;;;6278279;22;20149;-86
2023/12/08 03:43:26;;;;;;;32.57;17.60;;;2.90;1.00;;;;;;6278780;22;20193;-86
2023/12/08 03:45:52;;;;;;;36.83;19.60;;;3.00;1.00;;;;;;6278823;22;20148;-86
2023/12/08 03:48:17;;;;;;;38.20;20.90;;;3.00;1.00;;;;;;6278892;22;20148;-85
2023/12/08 03:50:42;;;;;;;38.23;21.63;;;2.90;1.00;;;;;;6279127;22;20184;-86
2023/12/08 03:53:08;;;;;;;39.40;19.07;;;2.90;1.00;;;;;;6279643;22;20538;-86
2023/12/08 03:55:33;;;;;;;37.20;20.00;;;2.90;1.00;;;;;;6278603;22;20160;-86
2023/12/08 03:57:59;;;;;;;40.83;20.47;;;3.00;1.00;;;;;;6278981;22;20149;-86
2023/12/08 04:00:24;;;;;;;38.87;20.33;;;3.00;1.00;;;;;;6277532;22;20955;-85
2023/12/08 04:02:50;;;;;;;36.40;21.03;;;3.00;1.00;;;;;;6278425;22;20195;-87
2023/12/08 04:05:15;;;;;;;45.90;21.13;;;3.00;1.00;;;;;;6277834;22;20162;-85
2023/12/08 04:07:41;;;;;;;37.07;21.17;;;3.00;1.00;;;;;;6251566;22;20240;-85
2023/12/08 04:10:07;;;;;;;47.37;26.00;;;3.00;1.00;;;;;;6250354;22;20253;-85
2023/12/08 04:12:32;;;;;;;40.83;21.97;;;3.00;1.00;;;;;;6276239;22;20609;-86
2023/12/08 04:14:58;;;;;;;37.60;20.90;;;3.00;1.20;;;;;;6276676;22;20421;-85
2023/12/08 04:17:23;;;;;;;45.90;25.80;;;3.00;3.30;;;;;;6276290;22;20157;-86
2023/12/08 04:19:49;;;;;;;45.30;23.30;;;3.00;5.10;;;;;;6276981;22;20152;-86
2023/12/08 04:22:14;;;;;;;46.50;23.80;;;3.00;3.90;;;;;;6248919;22;20152;-86
2023/12/08 04:24:40;;;;;;;48.30;28.03;;;3.00;5.30;;;;;;6275693;22;20494;-87
2023/12/08 04:27:05;;;;;;;47.10;24.10;;;3.00;5.50;;;;;;6276686;22;20153;-86
2023/12/08 04:29:31;;;;;;;46.57;25.23;;;2.90;4.20;;;;;;6251034;22;20153;-86
2023/12/08 04:31:56;;;;;;;48.03;28.33;;;2.90;7.60;;;;;;6250300;22;20212;-87
2023/12/08 04:34:22;;;;;;;47.10;23.37;;;2.90;15.90;;;;;;6249435;22;20179;-86
2023/12/08 04:36:47;;;;;;;52.50;25.30;;;3.00;20.90;;;;;;6276684;22;20149;-86
2023/12/08 04:39:13;;;;;;;53.93;25.20;;;3.00;23.00;;;;;;6249486;22;20149;-86
2023/12/08 04:41:38;;;;;;;68.50;34.33;;;2.90;22.30;;;;;;6276559;22;20523;-86
2023/12/08 04:44:04;;;;;;;57.90;33.97;;;3.00;26.80;;;;;;6275218;22;20179;-86
2023/12/08 04:46:29;;;;;;;65.17;34.80;;;2.90;23.60;;;;;;6276171;22;20145;-86
2023/12/08 04:48:55;;;;;;;48.80;23.67;;;3.00;30.30;;;;;;6275514;22;20148;-86
2023/12/08 04:51:20;;;;;;;137.77;57.83;;;3.00;26.00;;;;;;6275923;22;20153;-86
2023/12/08 04:53:46;;;;;;;58.13;31.60;;;3.00;24.60;;;;;;6275724;22;20564;-86
2023/12/08 04:56:11;;;;;;;49.97;23.77;;;3.10;27.00;;;;;;6276716;22;20149;-86
2023/12/08 04:58:40;;;;;;;50.20;27.47;;;3.10;23.60;;;;;;6276091;22;20172;-86
2023/12/08 05:01:11;;;;;;;54.72;26.48;;;3.00;13.50;;;;;;6247255;22;20188;-86
2023/12/08 05:03:36;;;;;;;55.30;26.98;;;3.10;20.70;;;;;;6275161;22;20577;-86
2023/12/08 05:06:02;;;;;;;60.63;29.20;;;3.10;19.10;;;;;;6273433;22;20157;-86
2023/12/08 05:08:29;;;;;;;59.10;26.10;;;3.10;16.60;;;;;;6249144;22;20149;-86
2023/12/08 05:10:54;;;;;;;59.65;30.00;;;3.10;13.00;;;;;;6275983;22;20473;-86
2023/12/08 05:13:20;;;;;;;43.37;23.10;;;3.10;14.60;;;;;;6274537;22;20181;-86
2023/12/08 05:15:45;;;;;;;78.57;36.70;;;3.20;21.30;;;;;;6276135;22;20226;-86
2023/12/08 05:18:11;;;;;;;47.10;24.10;;;3.20;13.60;;;;;;6248843;22;20185;-86
2023/12/08 05:20:36;;;;;;;39.93;21.73;;;3.10;2.50;;;;;;6248755;22;20505;-86
2023/12/08 05:23:02;;;;;;;47.00;27.70;;;3.20;2.50;;;;;;6275504;22;20179;-86
2023/12/08 05:25:27;;;;;;;54.60;27.43;;;3.20;1.00;;;;;;6274516;22;20149;-86
2023/12/08 05:27:53;;;;;;;50.23;28.10;;;3.20;2.40;;;;;;6275472;22;20145;-86
2023/12/08 05:30:18;;;;;;;47.07;22.67;;;3.20;4.50;;;;;;6275518;22;20172;-86
2023/12/08 05:32:44;;;;;;;47.83;24.00;;;3.20;3.90;;;;;;6275900;22;20169;-87
2023/12/08 05:35:09;;;;;;;42.60;23.10;;;3.30;1.90;;;;;;6275953;22;20605;-86
2023/12/08 05:37:35;;;;;;;42.97;21.80;;;3.30;1.00;;;;;;6275599;22;20274;-86
2023/12/08 05:40:00;;;;;;;39.30;21.20;;;3.30;1.00;;;;;;6275803;22;20152;-86
2023/12/08 05:42:26;;;;;;;45.37;20.80;;;3.30;1.00;;;;;;6275171;22;20199;-87
2023/12/08 05:44:51;;;;;;;39.33;20.57;;;3.30;1.00;;;;;;6275303;22;20228;-87
2023/12/08 05:47:17;;;;;;;40.90;21.40;;;3.30;1.00;;;;;;6274377;22;20244;-86
2023/12/08 05:49:43;;;;;;;37.67;22.13;;;3.30;1.00;;;;;;6248843;22;20672;-86
2023/12/08 05:52:09;;;;;;;44.03;24.40;;;3.30;1.00;;;;;;6275548;22;20367;-86
2023/12/08 05:54:35;;;;;;;49.28;24.10;;;3.40;1.00;;;;;;6248487;22;20184;-86
2023/12/08 05:57:00;;;;;;;35.63;25.40;;;3.40;1.00;;;;;;6275731;22;20152;-86
2023/12/08 05:59:26;;;;;;;42.43;20.07;;;3.50;1.00;;;;;;6247578;22;20240;-86
2023/12/08 06:01:51;;;;;;;38.47;20.00;;;3.40;1.00;;;;;;6278882;22;20207;-86
2023/12/08 06:04:17;;;;;;;36.60;20.43;;;3.40;1.00;;;;;;6274695;22;20644;-87
2023/12/08 06:06:42;;;;;;;40.47;20.73;;;3.40;1.00;;;;;;6273523;22;20153;-86
2023/12/08 06:09:08;;;;;;;45.50;22.60;;;3.40;1.00;;;;;;6274724;22;20153;-84
2023/12/08 06:11:33;;;;;;;39.80;20.10;;;3.40;1.00;;;;;;6275074;22;20163;-85
2023/12/08 06:13:59;;;;;;;35.30;20.50;;;3.50;1.00;;;;;;6247882;22;20177;-84
2023/12/08 06:16:25;;;;;;;37.60;20.30;;;3.50;1.00;;;;;;6274775;22;20210;-85
2023/12/08 06:18:51;;;;;;;36.93;19.63;;;3.50;1.00;;;;;;6275693;22;20386;-84
2023/12/08 06:21:17;;;;;;;35.75;21.20;;;3.50;1.00;;;;;;6247431;22;20184;-84
2023/12/08 06:23:42;;;;;;;33.03;20.50;;;3.40;1.00;;;;;;6275390;22;20518;-84
2023/12/08 06:26:08;;;;;;;29.80;18.37;;;3.50;1.00;;;;;;6274802;22;20153;-86
2023/12/08 06:28:33;;;;;;;38.23;23.70;;;3.50;1.00;;;;;;6275206;22;20533;-86
2023/12/08 06:30:59;;;;;;;49.43;25.20;;;3.50;1.00;;;;;;6246478;22;20192;-86
2023/12/08 06:33:24;;;;;;;34.40;22.77;;;3.60;1.00;;;;;;6275316;22;20191;-86
2023/12/08 06:35:50;;;;;;;36.60;23.37;;;3.60;1.00;;;;;;6247996;22;20727;-87
2023/12/08 06:38:15;;;;;;;36.43;20.50;;;3.60;1.00;;;;;;6274742;22;20157;-87
2023/12/08 06:40:41;;;;;;;35.07;20.57;;;3.50;1.00;;;;;;6274542;22;20647;-86
2023/12/08 06:43:07;;;;;;;42.17;23.30;;;3.50;1.00;;;;;;6275120;22;20165;-86
2023/12/08 06:45:33;;;;;;;49.73;27.53;;;3.50;1.00;;;;;;6274013;22;20267;-86
2023/12/08 06:47:58;;;;;;;56.03;29.10;;;3.60;1.00;;;;;;6274676;22;20176;-86
2023/12/08 06:50:24;;;;;;;36.50;22.57;;;3.60;1.00;;;;;;6273136;22;20240;-86
2023/12/08 06:52:51;;;;;;;39.47;22.10;;;3.60;1.00;;;;;;6247452;22;20259;-87
2023/12/08 06:55:18;;;;;;;38.70;22.10;;;3.60;1.00;;;;;;6275150;22;20179;-87
2023/12/08 06:57:43;;;;;;;41.72;21.40;;;3.60;1.00;;;;;;6247494;22;20161;-83
2023/12/08 07:00:10;;;;;;;36.50;19.90;;;3.70;1.00;;;;;;6274571;22;20207;-84
2023/12/08 07:02:36;;;;;;;37.13;21.00;;;3.70;1.00;;;;;;6273871;22;20173;-84
2023/12/08 07:05:01;;;;;;;36.88;21.92;;;3.70;1.00;;;;;;6274443;22;20245;-85
2023/12/08 07:07:27;;;;;;;41.43;21.33;;;3.70;1.00;;;;;;6246583;22;20609;-84
2023/12/08 07:09:52;;;;;;;38.90;24.13;;;3.70;1.00;;;;;;6273123;22;20160;-84
2023/12/08 07:12:18;;;;;;;34.23;21.57;;;3.70;1.00;;;;;;6273235;22;20601;-83
2023/12/08 07:14:43;;;;;;;42.53;23.90;;;3.70;1.00;;;;;;6276251;22;20160;-84
2023/12/08 07:17:09;;;;;;;42.80;23.47;;;3.70;1.00;;;;;;6277453;22;20157;-83
2023/12/08 07:19:38;;;;;;;39.63;21.50;;;3.70;1.00;;;;;;6250024;22;20157;-84
2023/12/08 07:22:04;;;;;;;35.15;22.30;;;3.80;1.00;;;;;;6249473;22;20628;-83
2023/12/08 07:24:29;;;;;;;33.88;20.02;;;3.90;1.00;;;;;;6275657;22;20180;-85
2023/12/08 07:26:55;;;;;;;31.93;20.67;;;4.00;1.00;;;;;;6277263;22;20145;-85
2023/12/08 07:29:24;;;;;;;31.30;18.50;;;4.10;1.00;;;;;;6275575;22;20149;-86
2023/12/08 07:31:49;;;;;;;32.40;19.67;;;4.10;1.00;;;;;;6281210;22;20153;-85
2023/12/08 07:34:15;;;;;;;35.77;18.27;;;4.20;1.00;;;;;;6277416;22;20172;-86
2023/12/08 07:36:40;;;;;;;33.47;19.03;;;4.20;1.00;;;;;;6275598;22;20157;-85
2023/12/08 07:39:09;;;;;;;31.90;20.60;;;4.30;1.00;;;;;;6250073;22;20163;-85
2023/12/08 07:41:35;;;;;;;33.00;19.38;;;4.30;1.00;;;;;;6276055;22;20203;-85
2023/12/08 07:44:01;;;;;;;28.80;19.53;;;4.30;1.00;;;;;;6249871;22;20173;-85
2023/12/08 07:46:27;;;;;;;32.70;18.50;;;4.40;1.00;;;;;;6249667;22;20384;-85
2023/12/08 07:48:52;;;;;;;30.35;17.52;;;4.40;1.00;;;;;;6277442;22;20380;-85
2023/12/08 07:51:19;;;;;;;32.27;19.80;;;4.30;1.00;;;;;;6277276;22;20205;-85
2023/12/08 07:53:44;;;;;;;36.28;21.02;;;4.40;1.00;;;;;;6249705;22;20176;-85
2023/12/08 07:56:12;;;;;;;34.57;20.00;;;4.40;1.00;;;;;;6250226;22;20221;-85
2023/12/08 07:58:37;;;;;;;33.03;18.60;;;4.50;1.00;;;;;;6248897;22;20236;-85
2023/12/08 08:01:03;;;;;;;32.60;19.97;;;4.50;1.00;;;;;;6277193;22;20204;-86
2023/12/08 08:03:29;;;;;;;32.08;18.63;;;4.50;1.00;;;;;;6250139;22;20185;-86
2023/12/08 08:05:54;;;;;;;33.57;21.90;;;4.50;1.00;;;;;;6275683;22;20199;-85
2023/12/08 08:08:21;;;;;;;38.00;21.60;;;4.50;1.00;;;;;;6298165;22;20168;-85
2023/12/08 08:10:46;;;;;;;37.30;22.27;;;4.60;1.00;;;;;;6274627;22;20157;-85
2023/12/08 08:13:12;;;;;;;35.70;20.83;;;4.60;1.00;;;;;;6275448;22;20199;-86
2023/12/08 08:15:38;;;;;;;36.70;20.00;;;4.60;1.00;;;;;;6273616;22;20231;-85
2023/12/08 08:18:03;;;;;;;32.93;19.97;;;4.60;1.00;;;;;;6273757;22;20675;-85
2023/12/08 08:20:29;;;;;;;35.40;19.60;;;4.60;1.00;;;;;;6275391;22;20172;-85
2023/12/08 08:22:55;;;;;;;27.90;17.93;;;4.60;1.00;;;;;;6274254;22;20223;-86
2023/12/08 08:25:20;;;;;;;34.08;20.35;;;4.60;1.00;;;;;;6276898;22;20153;-86
2023/12/08 08:27:53;;;;;;;34.47;20.73;;;4.70;1.00;;;;;;6275166;22;20180;-86
2023/12/08 08:30:21;;;;;;;32.40;19.83;;;4.70;1.00;;;;;;6274395;22;20723;-86
2023/12/08 08:32:47;;;;;;;32.65;19.45;;;4.70;1.00;;;;;;6275669;22;20169;-86
2023/12/08 08:35:14;;;;;;;29.23;17.33;;;4.90;1.00;;;;;;6273842;22;20600;-85
2023/12/08 08:37:39;;;;;;;26.20;15.82;;;4.90;1.00;;;;;;6274480;22;20149;-85
2023/12/08 08:40:05;;;;;;;30.63;16.23;;;5.00;1.00;;;;;;6273797;22;20213;-86
2023/12/08 08:42:31;;;;;;;23.75;16.25;;;5.00;1.00;;;;;;6275724;22;20507;-86
2023/12/08 08:44:57;;;;;;;24.50;16.88;;;5.10;1.00;;;;;;6276963;22;20156;-86
2023/12/08 08:47:23;;;;;;;30.57;15.83;;;5.10;1.00;;;;;;6275696;22;20153;-85
2023/12/08 08:49:49;;;;;;;29.50;17.10;;;5.20;1.00;;;;;;6275194;22;20163;-86
2023/12/08 08:52:14;;;;;;;25.08;14.85;;;5.20;1.00;;;;;;6276489;22;20237;-86
2023/12/08 08:54:40;;;;;;;25.47;16.33;;;5.30;1.00;;;;;;6274905;22;20161;-85
2023/12/08 08:57:05;;;;;;;27.53;16.03;;;5.30;1.00;;;;;;6269947;22;20676;-86
2023/12/08 08:59:31;;;;;;;24.10;16.10;;;5.40;1.00;;;;;;6276691;22;20152;-85
2023/12/08 09:01:57;;;;;;;27.83;14.03;;;5.40;1.00;;;;;;6278882;22;20179;-85
2023/12/08 09:04:22;;;;;;;22.50;14.53;;;5.40;1.00;;;;;;6253897;22;20205;-88
2023/12/08 09:06:48;;;;;;;22.00;13.83;;;5.40;1.00;;;;;;6250380;23;20201;-87
2023/12/08 09:09:16;;;;;;;23.93;14.70;;;5.40;1.00;;;;;;6245409;23;20188;-87
2023/12/08 09:11:44;;;;;;;22.65;13.88;;;5.50;1.00;;;;;;6244814;22;20218;-85
2023/12/08 09:14:09;;;;;;;20.02;13.05;;;5.50;1.00;;;;;;6244920;22;20174;-87
2023/12/08 09:16:35;;;;;;;22.90;14.07;;;5.60;1.00;;;;;;6245438;23;20156;-86
2023/12/08 09:19:05;;;;;;;22.97;13.80;;;5.60;1.00;;;;;;6246033;23;20158;-86
2023/12/08 09:21:31;;;;;;;31.30;13.80;;;5.70;1.00;;;;;;6268741;22;20212;-86
2023/12/08 09:24:02;;;;;;;25.67;12.77;;;5.70;1.00;;;;;;6266707;22;20177;-86
2023/12/08 09:26:28;;;;;;;20.35;12.77;;;5.80;1.00;;;;;;6242510;23;20395;-88
2023/12/08 09:28:53;;;;;;;23.00;14.57;;;5.80;1.00;;;;;;6243238;23;20490;-87
2023/12/08 09:31:19;;;;;;;25.33;13.13;;;5.90;1.00;;;;;;6242766;23;20154;-87
2023/12/08 09:33:46;;;;;;;21.57;13.77;;;5.90;1.00;;;;;;6244198;22;20170;-87
2023/12/08 09:36:12;;;;;;;22.27;12.93;;;6.00;1.00;;;;;;6244397;22;20381;-87
2023/12/08 09:38:37;;;;;;;22.60;14.10;;;6.00;1.00;;;;;;6244078;22;20154;-85
2023/12/08 09:41:06;;;;;;;20.43;12.43;;;6.10;1.00;;;;;;6243799;23;20180;-86
2023/12/08 09:43:44;;;;;;;24.83;13.55;;;6.20;1.00;;;;;;6243685;23;20177;-87
2023/12/08 09:46:10;;;;;;;23.73;12.52;;;6.20;1.00;;;;;;6244089;22;20138;-86
2023/12/08 09:48:39;;;;;;;29.42;12.65;;;6.30;1.00;;;;;;6243018;22;20164;-88
2023/12/08 09:51:05;;;;;;;20.00;11.90;;;6.40;1.00;;;;;;6265963;22;20172;-87
2023/12/08 09:53:32;;;;;;;24.38;13.52;;;6.40;1.00;;;;;;6243513;22;20181;-87
2023/12/08 09:55:58;;;;;;;22.73;12.65;;;6.50;1.00;;;;;;6242456;23;20162;-87
2023/12/08 09:58:26;;;;;;;24.77;13.77;;;6.50;1.00;;;;;;6243650;22;20479;-87
2023/12/08 10:00:51;;;;;;;24.98;13.10;;;6.60;1.00;;;;;;6244042;22;20197;-87
2023/12/08 10:03:20;;;;;;;30.67;13.13;;;6.60;1.00;;;;;;6250350;22;20933;-87
2023/12/08 10:05:45;;;;;;;27.85;12.57;;;6.70;1.00;;;;;;6273484;22;20147;-87
2023/12/08 10:08:12;;;;;;;21.63;12.33;;;6.80;1.00;;;;;;6275518;22;20223;-86
2023/12/08 10:10:42;;;;;;;26.00;12.95;;;6.80;1.00;;;;;;6274263;22;20161;-87
2023/12/08 10:13:08;;;;;;;28.50;14.60;;;6.90;1.00;;;;;;6275248;22;20196;-87
2023/12/08 10:15:43;;;;;;;31.73;13.50;;;7.00;1.00;;;;;;6272590;22;20161;-87
2023/12/08 10:18:23;;;;;;;27.67;13.88;;;7.00;1.00;;;;;;6248162;22;20265;-87
2023/12/08 10:20:48;;;;;;;22.55;14.23;;;7.00;1.00;;;;;;6247898;22;20650;-88
2023/12/08 10:23:19;;;;;;;26.00;13.47;;;7.10;1.00;;;;;;6273530;22;20173;-87
2023/12/08 10:25:49;;;;;;;23.83;12.15;;;7.10;1.00;;;;;;6273973;22;20133;-88
2023/12/08 10:28:21;;;;;;;30.27;12.88;;;7.20;1.00;;;;;;6271972;22;20866;-87
2023/12/08 10:30:51;;;;;;;24.58;11.60;;;7.20;1.00;;;;;;6247475;22;20156;-87
2023/12/08 10:33:21;;;;;;;33.47;12.93;;;7.30;1.00;;;;;;6272596;22;20169;-88
2023/12/08 10:35:47;;;;;;;33.58;13.35;;;7.30;1.00;;;;;;6272354;22;20161;-87
2023/12/08 10:38:13;;;;;;;28.05;11.48;;;7.40;1.00;;;;;;6273943;22;20148;-87
2023/12/08 10:40:46;;;;;;;26.47;11.57;;;7.50;1.00;;;;;;6270054;22;20239;-86
2023/12/08 10:43:22;;;;;;;28.83;11.40;;;7.60;1.00;;;;;;6247441;22;20506;-88
2023/12/08 10:45:55;;;;;;;26.40;13.17;;;7.60;1.00;;;;;;6248103;22;20448;-86
2023/12/08 10:48:28;;;;;;;32.13;13.00;;;7.70;1.00;;;;;;6274181;22;20458;-87
2023/12/08 10:50:56;;;;;;;25.63;11.37;;;7.70;1.00;;;;;;6276344;22;20422;-87
2023/12/08 10:53:26;;;;;;;25.33;12.43;;;7.80;1.00;;;;;;6276158;22;20486;-88
2023/12/08 10:56:06;;;;;;;22.80;12.80;;;7.80;1.00;;;;;;6250299;22;20394;-87
2023/12/08 10:58:35;;;;;;;51.53;19.00;;;7.80;1.00;;;;;;6276768;22;20395;-87
2023/12/08 11:01:05;;;;;;;44.37;19.83;;;7.90;1.00;;;;;;6250126;22;20419;-86
2023/12/08 11:03:35;;;;;;;34.50;16.20;;;7.90;1.00;;;;;;6249173;22;20423;-86
2023/12/08 11:06:11;;;;;;;51.57;19.70;;;8.00;1.00;;;;;;6277677;22;20383;-86
2023/12/08 11:08:43;;;;;;;30.27;13.60;;;8.00;1.70;;;;;;6249628;22;20507;-87
2023/12/08 11:11:09;;;;;;;27.80;12.20;;;8.10;7.50;;;;;;6275259;22;20362;-87
2023/12/08 11:13:39;;;;;;;26.93;12.30;;;8.20;6.60;;;;;;6249316;22;20422;-87
2023/12/08 11:16:29;;;;;;;23.20;12.37;;;8.20;6.90;;;;;;6276260;22;20780;-87
2023/12/08 11:18:55;;;;;;;26.33;11.60;;;8.20;11.80;;;;;;6250110;22;20414;-87
2023/12/08 11:21:24;;;;;;;24.23;11.87;;;8.20;11.00;;;;;;6276224;22;20926;-87
2023/12/08 11:23:50;;;;;;;29.67;14.10;;;8.20;12.80;;;;;;6249552;22;20473;-85
2023/12/08 11:26:22;;;;;;;28.90;14.00;;;8.20;13.20;;;;;;6250426;22;20464;-86
2023/12/08 11:29:10;;;;;;;29.33;14.33;;;8.20;18.20;;;;;;6275717;22;20514;-87
2023/12/08 11:31:47;;;;;;;36.27;13.37;;;8.10;21.30;;;;;;6250112;22;20727;-87
2023/12/08 11:34:37;;;;;;;27.23;13.37;;;8.20;24.10;;;;;;6275797;22;20428;-87
2023/12/08 11:37:07;;;;;;;30.77;12.98;;;8.20;24.70;;;;;;6276963;22;20828;-86
2023/12/08 11:39:40;;;;;;;33.87;14.30;;;8.20;21.90;;;;;;6248496;22;20207;-86
2023/12/08 11:42:10;;;;;;;41.47;13.77;;;8.20;16.80;;;;;;6249470;22;20476;-87
2023/12/08 11:44:37;;;;;;;34.67;14.50;;;8.20;13.40;;;;;;6249105;22;20403;-86
2023/12/08 11:47:07;;;;;;;37.67;14.50;;;8.20;13.90;;;;;;6277052;22;20706;-85
2023/12/08 11:49:35;;;;;;;46.63;15.80;;;8.30;15.10;;;;;;6275025;22;20376;-84
2023/12/08 11:52:29;;;;;;;37.50;16.37;;;8.30;13.20;;;;;;6276036;22;20376;-85
2023/12/08 11:58:03;;;;;;;39.57;15.30;;;8.40;9.50;;;;;;6276190;22;20360;-86
2023/12/08 12:00:31;;;;;;;35.47;14.40;;;8.50;7.20;;;;;;6276209;22;20425;-85
2023/12/08 12:02:58;;;;;;;42.17;14.73;;;8.50;1.70;;;;;;6275877;22;20417;-86
2023/12/08 12:05:26;;;;;;;40.57;14.50;;;8.50;1.70;;;;;;6251498;22;20859;-85
2023/12/08 12:07:53;;;;;;;37.73;16.70;;;8.60;1.00;;;;;;6252459;22;20875;-86
2023/12/08 12:10:21;;;;;;;40.43;15.87;;;8.60;1.00;;;;;;6276346;22;20379;-86
2023/12/08 12:13:12;;;;;;;33.10;14.33;;;8.60;1.00;;;;;;6244589;22;20779;-86
2023/12/08 12:15:40;;;;;;;43.87;15.30;;;8.70;1.00;;;;;;6272943;22;20363;-87
2023/12/08 12:18:05;;;;;;;35.33;14.43;;;8.70;1.00;;;;;;6246846;22;20859;-88
2023/12/08 12:20:34;;;;;;;30.53;12.80;;;8.70;1.00;;;;;;6274752;22;20423;-86
2023/12/08 12:23:00;;;;;;;31.07;14.27;;;8.80;1.00;;;;;;6245057;22;20164;-87
2023/12/08 12:25:26;;;;;;;30.00;14.37;;;8.80;1.00;;;;;;6272916;22;20778;-87
2023/12/08 12:27:53;;;;;;;31.17;13.50;;;8.90;1.00;;;;;;6246548;22;20199;-87
2023/12/08 12:30:19;;;;;;;29.73;14.23;;;9.00;1.00;;;;;;6271838;22;20744;-88
2023/12/08 12:32:47;;;;;;;27.47;12.50;;;9.00;1.00;;;;;;6271348;22;20800;-86
2023/12/08 12:35:13;;;;;;;32.53;13.10;;;9.10;1.00;;;;;;6245151;22;20383;-87
2023/12/08 12:37:42;;;;;;;28.00;11.67;;;9.10;1.00;;;;;;6270570;22;20379;-87
2023/12/08 12:40:11;;;;;;;22.00;10.83;;;9.20;1.00;;;;;;6245242;22;20721;-87
2023/12/08 12:42:42;;;;;;;32.80;11.83;;;9.30;1.00;;;;;;6246631;22;20379;-87
2023/12/08 12:45:09;;;;;;;23.00;11.90;;;9.30;1.00;;;;;;6246351;22;20404;-89
2023/12/08 12:47:43;;;;;;;26.43;12.23;;;9.30;1.00;;;;;;6272492;22;20376;-86